Time;durP1;ratioP1;P1;durP2;ratioP2;P2;SDS_P1;SDS_P2;PMS_P1;PMS_P2;Temp;Humidity;BMP_temperature;BMP_pressure;BME280_temperature;BME280_humidity;BME280_pressure;Samples;Min_cycle;Max_cycle;Signal;HPM_P1;HPM_P2
2021/06/08 00:00:29;;;;;;;18.37;15.53;;;18.40;99.90;;;;;;1912514;73;21011;-73
2021/06/08 00:02:56;;;;;;;19.52;15.15;;;18.40;99.90;;;;;;1917938;73;21560;-73
2021/06/08 00:05:24;;;;;;;16.95;14.93;;;18.30;99.90;;;;;;1921424;73;21097;-72
2021/06/08 00:07:52;;;;;;;18.55;15.20;;;18.30;99.90;;;;;;1916256;73;21164;-73
2021/06/08 00:10:20;;;;;;;17.10;15.25;;;18.30;99.90;;;;;;1916089;74;21628;-72
2021/06/08 00:12:48;;;;;;;16.87;15.08;;;18.30;99.90;;;;;;1920348;73;21192;-72
2021/06/08 00:15:16;;;;;;;17.27;15.50;;;18.30;99.90;;;;;;1919427;73;21078;-72
2021/06/08 00:17:43;;;;;;;17.52;15.72;;;18.30;99.90;;;;;;1922911;73;21175;-72
2021/06/08 00:20:13;;;;;;;16.97;14.85;;;18.30;99.90;;;;;;1915799;73;21134;-73
2021/06/08 00:22:40;;;;;;;20.57;15.58;;;18.30;99.90;;;;;;1917135;73;21106;-73
2021/06/08 00:25:09;;;;;;;18.42;15.88;;;18.30;99.90;;;;;;1919347;73;21592;-72
2021/06/08 00:27:36;;;;;;;19.48;15.20;;;18.20;99.90;;;;;;1915021;73;21102;-72
2021/06/08 00:30:05;;;;;;;22.75;16.00;;;18.20;99.90;;;;;;1922688;72;21167;-73
2021/06/08 00:32:33;;;;;;;21.02;15.72;;;18.30;99.90;;;;;;1915095;75;21560;-73
2021/06/08 00:35:01;;;;;;;17.90;16.10;;;18.30;99.90;;;;;;1911093;73;21101;-73
2021/06/08 00:37:28;;;;;;;17.32;15.13;;;18.30;99.90;;;;;;1921025;73;21176;-72
2021/06/08 00:39:56;;;;;;;17.90;15.80;;;18.30;99.90;;;;;;1916060;73;21179;-72
2021/06/08 00:42:35;;;;;;;19.02;15.78;;;18.30;99.90;;;;;;1914876;73;21175;-72
2021/06/08 00:45:04;;;;;;;16.57;14.78;;;18.30;99.90;;;;;;1913811;73;21179;-72
2021/06/08 00:47:32;;;;;;;18.10;14.18;;;18.20;99.90;;;;;;1914923;73;21067;-71
2021/06/08 00:50:00;;;;;;;18.12;14.85;;;18.20;99.90;;;;;;1913685;73;21164;-72
2021/06/08 00:52:28;;;;;;;16.77;14.90;;;18.30;99.90;;;;;;1917411;73;21148;-71
2021/06/08 00:54:55;;;;;;;18.12;14.85;;;18.30;99.90;;;;;;1914241;73;21114;-72
2021/06/08 00:57:23;;;;;;;15.63;13.60;;;18.30;99.90;;;;;;1914011;75;21603;-72
2021/06/08 00:59:50;;;;;;;15.90;14.20;;;18.30;99.90;;;;;;1921824;73;21090;-73
2021/06/08 01:02:18;;;;;;;18.25;14.78;;;18.30;99.90;;;;;;1919516;73;21085;-72
2021/06/08 01:04:45;;;;;;;18.05;15.08;;;18.30;99.90;;;;;;1925743;73;21030;-71
2021/06/08 01:07:12;;;;;;;16.48;14.55;;;18.30;99.90;;;;;;1917002;75;21039;-72
2021/06/08 01:09:40;;;;;;;21.57;15.53;;;18.30;99.90;;;;;;1917930;73;21063;-71
2021/06/08 01:12:08;;;;;;;20.32;15.00;;;18.30;99.90;;;;;;1917081;75;21042;-72
2021/06/08 01:14:36;;;;;;;17.37;14.50;;;18.30;99.90;;;;;;1917789;73;21054;-72
2021/06/08 01:17:03;;;;;;;16.87;15.08;;;18.30;99.90;;;;;;1916293;75;21167;-72
2021/06/08 01:19:31;;;;;;;17.12;14.78;;;18.40;99.90;;;;;;1916244;73;21068;-73
2021/06/08 01:21:58;;;;;;;17.82;15.80;;;18.30;99.90;;;;;;1916753;73;21129;-72
2021/06/08 01:24:26;;;;;;;18.60;16.62;;;18.30;99.90;;;;;;1916256;73;21086;-71
2021/06/08 01:26:54;;;;;;;20.05;15.43;;;18.30;99.90;;;;;;1920134;73;21085;-73
2021/06/08 01:29:25;;;;;;;17.50;15.63;;;18.30;99.90;;;;;;1918205;73;21513;-72
2021/06/08 01:31:58;;;;;;;17.15;15.45;;;18.30;99.90;;;;;;1918334;73;21695;-72
2021/06/08 01:34:24;;;;;;;19.13;15.53;;;18.30;99.90;;;;;;1915927;73;21066;-72
2021/06/08 01:36:52;;;;;;;19.82;16.73;;;18.30;99.90;;;;;;1917281;73;21179;-72
2021/06/08 01:39:20;;;;;;;17.40;15.30;;;18.30;99.90;;;;;;1924157;73;21042;-72
2021/06/08 01:41:48;;;;;;;21.12;15.25;;;18.10;99.90;;;;;;1914519;73;21592;-72
2021/06/08 01:44:15;;;;;;;18.92;16.52;;;18.20;99.90;;;;;;1915514;73;21074;-72
2021/06/08 01:46:43;;;;;;;20.32;15.23;;;18.20;99.90;;;;;;1914307;75;21081;-72
2021/06/08 01:49:11;;;;;;;20.17;15.85;;;18.30;99.90;;;;;;1915404;73;21112;-72
2021/06/08 01:51:47;;;;;;;17.12;14.73;;;18.30;99.90;;;;;;1915019;75;21175;-72
2021/06/08 01:54:36;;;;;;;16.07;14.38;;;18.30;99.90;;;;;;1914451;73;21097;-73
2021/06/08 01:57:15;;;;;;;17.55;15.45;;;18.30;99.90;;;;;;1910007;75;21547;-71
2021/06/08 01:59:52;;;;;;;22.20;15.45;;;18.30;99.90;;;;;;1915343;73;21121;-71
2021/06/08 02:02:48;;;;;;;20.27;15.85;;;18.30;99.90;;;;;;1914602;75;21122;-71
2021/06/08 02:05:38;;;;;;;17.82;15.95;;;18.30;99.90;;;;;;1922827;73;21109;-71
2021/06/08 02:08:11;;;;;;;18.37;15.45;;;18.20;99.90;;;;;;1915018;73;21515;-71
2021/06/08 02:10:49;;;;;;;17.17;15.38;;;18.10;99.90;;;;;;1924574;73;21176;-71
2021/06/08 02:13:28;;;;;;;21.35;16.00;;;18.20;99.90;;;;;;1914428;73;21530;-72
2021/06/08 02:16:02;;;;;;;22.37;15.38;;;18.20;99.90;;;;;;1917478;73;21081;-72
2021/06/08 02:18:31;;;;;;;18.00;15.45;;;18.20;99.90;;;;;;1921889;73;21172;-72
2021/06/08 02:21:01;;;;;;;19.23;15.28;;;18.20;99.90;;;;;;1913176;75;21090;-72
2021/06/08 02:23:31;;;;;;;20.60;16.23;;;18.20;99.90;;;;;;1914928;75;21061;-72
2021/06/08 02:26:07;;;;;;;17.77;14.83;;;18.20;99.90;;;;;;1924372;73;21070;-72
2021/06/08 02:28:37;;;;;;;19.85;16.32;;;18.10;99.90;;;;;;1915885;73;21101;-72
2021/06/08 02:31:08;;;;;;;17.62;15.83;;;18.20;99.90;;;;;;1926034;73;21133;-71
2021/06/08 02:33:38;;;;;;;19.27;15.95;;;18.20;99.90;;;;;;1915118;73;21551;-72
2021/06/08 02:36:07;;;;;;;17.40;15.50;;;18.20;99.90;;;;;;1912466;73;22212;-71
2021/06/08 02:38:36;;;;;;;21.90;15.88;;;18.20;99.90;;;;;;1912411;73;21080;-70
2021/06/08 02:41:06;;;;;;;19.57;16.70;;;18.20;99.90;;;;;;1923353;73;21188;-72
2021/06/08 02:43:35;;;;;;;22.82;17.05;;;18.30;99.90;;;;;;1929178;73;21507;-71
2021/06/08 02:46:04;;;;;;;18.35;15.93;;;18.30;99.90;;;;;;1916729;73;21037;-72
2021/06/08 02:48:32;;;;;;;19.75;17.00;;;18.20;99.90;;;;;;1913922;75;21004;-72
2021/06/08 02:51:00;;;;;;;19.23;17.00;;;18.20;99.90;;;;;;1919043;73;21537;-71
2021/06/08 02:53:29;;;;;;;20.60;16.95;;;18.20;99.90;;;;;;1915641;75;21108;-71
2021/06/08 02:55:57;;;;;;;22.20;17.48;;;18.10;99.90;;;;;;1918133;73;21556;-72
2021/06/08 02:58:26;;;;;;;19.17;17.12;;;18.20;99.90;;;;;;1915431;75;21026;-70
2021/06/08 03:00:54;;;;;;;21.20;16.87;;;18.20;99.90;;;;;;1927001;73;21058;-72
2021/06/08 03:03:25;;;;;;;20.08;17.35;;;18.30;99.90;;;;;;1915574;73;21100;-72
2021/06/08 03:05:55;;;;;;;19.27;17.05;;;18.20;99.90;;;;;;1928969;73;21043;-72
2021/06/08 03:08:26;;;;;;;18.55;16.27;;;18.20;99.90;;;;;;1906283;73;21074;-72
2021/06/08 03:10:54;;;;;;;20.77;17.12;;;18.20;99.90;;;;;;1914783;73;21133;-72
2021/06/08 03:13:23;;;;;;;20.90;17.07;;;18.20;99.90;;;;;;1913893;73;21540;-72
2021/06/08 03:16:00;;;;;;;21.02;17.52;;;18.20;99.90;;;;;;1918112;73;21113;-72
2021/06/08 03:18:30;;;;;;;20.85;17.80;;;18.20;99.90;;;;;;1915506;73;21207;-71
2021/06/08 03:21:04;;;;;;;21.93;18.02;;;18.20;99.90;;;;;;1916202;73;21145;-70
2021/06/08 03:23:37;;;;;;;22.58;16.93;;;18.20;99.90;;;;;;1922264;73;21110;-71
2021/06/08 03:26:07;;;;;;;19.80;16.77;;;18.20;99.90;;;;;;1915522;73;21060;-70
2021/06/08 03:28:38;;;;;;;21.50;17.07;;;18.10;99.90;;;;;;1914443;73;21165;-70
2021/06/08 03:31:06;;;;;;;19.73;15.95;;;18.20;99.90;;;;;;1917012;73;21122;-70
2021/06/08 03:33:35;;;;;;;23.45;17.25;;;18.20;99.90;;;;;;1928529;73;21254;-70
2021/06/08 03:36:03;;;;;;;19.67;17.40;;;18.20;99.90;;;;;;1932546;73;21066;-70
2021/06/08 03:38:32;;;;;;;21.82;17.77;;;18.10;99.90;;;;;;1906353;73;21230;-70
2021/06/08 03:41:00;;;;;;;25.68;17.85;;;18.20;99.90;;;;;;1919352;73;21156;-70
2021/06/08 03:43:28;;;;;;;20.23;17.40;;;18.20;99.90;;;;;;1913438;75;21160;-70
2021/06/08 03:45:55;;;;;;;21.90;17.70;;;18.20;99.90;;;;;;1915149;73;21685;-71
2021/06/08 03:48:23;;;;;;;21.23;18.00;;;18.20;99.90;;;;;;1915655;73;21485;-70
2021/06/08 03:50:52;;;;;;;21.93;17.65;;;18.20;99.90;;;;;;1922941;73;21117;-70
2021/06/08 03:53:19;;;;;;;21.73;17.77;;;18.20;99.90;;;;;;1914410;75;21111;-71
2021/06/08 03:55:49;;;;;;;21.70;18.77;;;18.30;99.90;;;;;;1915001;73;21571;-70
2021/06/08 03:58:19;;;;;;;20.68;16.97;;;18.30;99.90;;;;;;1915265;73;22019;-69
2021/06/08 04:00:50;;;;;;;23.85;18.12;;;18.30;99.90;;;;;;1914550;73;21098;-70
2021/06/08 04:03:20;;;;;;;21.97;17.62;;;18.30;99.90;;;;;;1918149;73;21543;-71
2021/06/08 04:05:47;;;;;;;21.42;17.45;;;18.30;99.90;;;;;;1918103;73;21581;-71
2021/06/08 04:08:15;;;;;;;20.75;18.57;;;18.30;99.90;;;;;;1921199;73;21038;-71
2021/06/08 04:10:45;;;;;;;22.85;18.37;;;18.30;99.90;;;;;;1915028;75;21100;-71
2021/06/08 04:13:13;;;;;;;20.90;18.65;;;18.30;99.90;;;;;;1885338;71;21211;-73
2021/06/08 04:15:41;;;;;;;26.37;18.55;;;18.40;99.90;;;;;;1871030;76;21156;-75
2021/06/08 04:18:12;;;;;;;20.55;18.10;;;18.30;99.90;;;;;;1871549;76;21082;-74
2021/06/08 04:20:40;;;;;;;22.65;18.62;;;18.40;99.90;;;;;;1870577;76;21105;-74
2021/06/08 04:23:08;;;;;;;20.95;18.40;;;18.30;99.90;;;;;;1864866;76;21129;-74
2021/06/08 04:25:36;;;;;;;20.57;17.75;;;18.30;99.90;;;;;;1870726;76;21564;-74
2021/06/08 04:28:04;;;;;;;21.65;18.00;;;18.30;99.90;;;;;;1871125;76;21106;-74
2021/06/08 04:30:31;;;;;;;20.08;17.85;;;18.30;99.90;;;;;;1870815;76;21790;-74
2021/06/08 04:32:59;;;;;;;23.62;18.92;;;18.30;99.90;;;;;;1869991;75;21145;-75
2021/06/08 04:35:27;;;;;;;22.77;17.90;;;18.30;99.90;;;;;;1871333;76;21110;-76
2021/06/08 04:37:54;;;;;;;22.45;18.12;;;18.30;99.90;;;;;;1861217;76;21106;-75
2021/06/08 04:40:23;;;;;;;21.52;18.73;;;18.40;99.90;;;;;;1867688;76;21626;-75
2021/06/08 04:42:51;;;;;;;21.48;17.65;;;18.40;99.90;;;;;;1871190;76;21142;-74
2021/06/08 04:45:18;;;;;;;21.57;18.85;;;18.40;99.90;;;;;;1871341;76;21035;-74
2021/06/08 04:47:47;;;;;;;22.20;18.00;;;18.40;99.90;;;;;;1870873;76;21051;-75
2021/06/08 04:50:16;;;;;;;24.55;17.80;;;18.40;99.90;;;;;;1871902;76;21074;-75
2021/06/08 04:52:43;;;;;;;22.80;17.82;;;18.40;99.90;;;;;;1871442;75;21588;-74
2021/06/08 04:55:12;;;;;;;20.97;16.95;;;18.40;99.90;;;;;;1871178;76;21725;-75
2021/06/08 04:57:40;;;;;;;20.88;17.50;;;18.40;99.90;;;;;;1872185;76;21175;-75
2021/06/08 05:00:13;;;;;;;21.95;16.97;;;18.30;99.90;;;;;;1871638;76;21105;-75
2021/06/08 05:02:49;;;;;;;21.23;15.93;;;18.30;99.90;;;;;;1871282;76;21063;-75
2021/06/08 05:05:25;;;;;;;17.90;15.75;;;18.40;99.90;;;;;;1871485;76;21086;-75
2021/06/08 05:08:07;;;;;;;24.65;15.23;;;18.40;99.90;;;;;;1871148;76;21047;-75
2021/06/08 05:10:36;;;;;;;;;;;18.50;99.90;;;;;;1873727;76;21442;-75
2021/06/08 05:13:04;;;;;;;21.17;15.58;;;18.50;99.90;;;;;;1867464;75;20869;-75
2021/06/08 05:15:33;;;;;;;21.23;15.88;;;18.50;99.90;;;;;;1861375;77;21106;-74
2021/06/08 05:18:00;;;;;;;20.65;15.78;;;18.50;99.90;;;;;;1855823;76;21564;-75
2021/06/08 05:20:29;;;;;;;18.98;15.53;;;18.50;99.90;;;;;;1865628;76;21646;-75
2021/06/08 05:22:57;;;;;;;21.57;15.65;;;18.50;99.90;;;;;;1859579;75;21102;-75
2021/06/08 05:25:25;;;;;;;21.15;15.15;;;18.50;99.90;;;;;;1863984;77;21101;-75
2021/06/08 05:27:53;;;;;;;19.77;15.43;;;18.50;99.90;;;;;;1862424;76;21078;-75
2021/06/08 05:30:22;;;;;;;21.73;15.85;;;18.60;99.90;;;;;;1861278;76;21051;-74
2021/06/08 05:32:49;;;;;;;22.13;15.20;;;18.60;99.90;;;;;;1864564;76;21126;-74
2021/06/08 05:35:20;;;;;;;20.77;15.18;;;18.60;99.90;;;;;;1862357;76;21102;-74
2021/06/08 05:37:47;;;;;;;19.80;15.53;;;18.70;99.90;;;;;;1861361;76;21477;-74
2021/06/08 05:40:15;;;;;;;17.52;13.80;;;18.70;99.90;;;;;;1864437;77;21552;-75
2021/06/08 05:42:42;;;;;;;19.52;14.75;;;18.70;99.90;;;;;;1864684;76;21134;-75
2021/06/08 05:45:11;;;;;;;16.17;13.43;;;18.80;99.90;;;;;;1865359;76;21094;-76
2021/06/08 05:47:38;;;;;;;19.02;13.40;;;18.80;99.90;;;;;;1864723;75;21094;-79
2021/06/08 05:50:06;;;;;;;14.45;12.68;;;18.80;99.90;;;;;;1860671;77;21547;-77
2021/06/08 05:52:35;;;;;;;14.87;12.25;;;18.90;99.90;;;;;;1864181;75;21230;-77
2021/06/08 05:55:03;;;;;;;15.60;12.82;;;18.90;99.90;;;;;;1863352;76;21063;-76
2021/06/08 05:57:30;;;;;;;18.82;12.25;;;18.90;99.90;;;;;;1857907;76;21190;-72
2021/06/08 05:59:58;;;;;;;16.05;12.82;;;19.00;99.90;;;;;;1865238;77;21303;-72
2021/06/08 06:02:27;;;;;;;15.30;12.75;;;19.00;99.90;;;;;;1862476;75;21215;-73
2021/06/08 06:04:55;;;;;;;13.80;11.45;;;19.10;99.90;;;;;;1864854;77;21086;-73
2021/06/08 06:07:25;;;;;;;14.18;11.53;;;19.10;99.90;;;;;;1865200;76;21184;-73
2021/06/08 06:09:53;;;;;;;16.10;11.10;;;19.00;99.90;;;;;;1860359;76;21140;-74
2021/06/08 06:12:21;;;;;;;16.10;12.03;;;19.10;99.90;;;;;;1864819;77;21138;-76
2021/06/08 06:14:50;;;;;;;16.90;11.78;;;19.10;99.90;;;;;;1864154;76;21101;-74
2021/06/08 06:17:22;;;;;;;16.90;11.38;;;19.10;99.90;;;;;;1865377;77;21114;-73
2021/06/08 06:19:49;;;;;;;16.93;11.68;;;19.20;99.90;;;;;;1865163;76;21106;-76
2021/06/08 06:22:18;;;;;;;14.60;11.10;;;19.20;99.90;;;;;;1865072;75;21126;-72
2021/06/08 06:24:46;;;;;;;15.83;11.83;;;19.20;99.90;;;;;;1856994;76;21737;-73
2021/06/08 06:27:13;;;;;;;16.15;10.63;;;19.30;99.90;;;;;;1865622;77;21043;-74
2021/06/08 06:29:41;;;;;;;14.53;10.72;;;19.30;99.90;;;;;;1850847;77;21101;-73
2021/06/08 06:32:09;;;;;;;13.72;9.68;;;19.40;99.90;;;;;;1864396;77;21580;-71
2021/06/08 06:34:38;;;;;;;15.85;9.53;;;19.40;99.90;;;;;;1866057;77;21168;-74
2021/06/08 06:37:07;;;;;;;14.10;10.23;;;19.40;99.90;;;;;;1863334;77;21106;-71
2021/06/08 06:39:36;;;;;;;12.85;10.75;;;19.40;99.90;;;;;;1862816;76;21583;-70
2021/06/08 06:42:07;;;;;;;14.03;9.85;;;19.30;99.90;;;;;;1860550;75;21051;-75
2021/06/08 06:44:35;;;;;;;12.55;10.45;;;19.30;99.90;;;;;;1865121;76;21773;-76
2021/06/08 06:47:02;;;;;;;12.98;9.95;;;19.40;99.90;;;;;;1864075;77;21740;-76
2021/06/08 06:49:30;;;;;;;11.30;9.60;;;19.40;99.90;;;;;;1852374;77;21129;-73
2021/06/08 06:51:57;;;;;;;12.73;10.23;;;19.40;99.90;;;;;;1856064;75;21117;-73
2021/06/08 06:54:25;;;;;;;13.48;9.85;;;19.40;99.90;;;;;;1864859;77;21058;-73
2021/06/08 06:56:56;;;;;;;13.08;10.08;;;19.50;99.90;;;;;;1863029;76;21098;-74
2021/06/08 06:59:23;;;;;;;15.40;10.43;;;19.60;99.90;;;;;;1857329;77;21117;-76
2021/06/08 07:01:51;;;;;;;13.35;9.35;;;19.70;99.90;;;;;;1864251;77;22196;-74
2021/06/08 07:04:20;;;;;;;12.18;9.43;;;19.70;99.90;;;;;;1864267;75;21114;-74
2021/06/08 07:06:48;;;;;;;12.82;9.65;;;19.80;99.90;;;;;;1858453;76;21189;-76
2021/06/08 07:09:16;;;;;;;13.55;9.25;;;19.90;99.90;;;;;;1864043;76;21097;-76
2021/06/08 07:11:45;;;;;;;10.95;9.28;;;19.90;99.90;;;;;;1864361;75;21138;-76
2021/06/08 07:14:13;;;;;;;12.25;8.95;;;19.90;99.90;;;;;;1859715;76;21180;-76
2021/06/08 07:16:42;;;;;;;11.48;9.48;;;19.90;99.90;;;;;;1864816;76;21101;-71
2021/06/08 07:19:13;;;;;;;14.58;9.63;;;20.00;99.90;;;;;;1863027;75;21247;-74
2021/06/08 07:21:42;;;;;;;15.98;9.88;;;20.00;99.90;;;;;;1860162;75;21683;-75
2021/06/08 07:24:11;;;;;;;12.28;9.95;;;20.00;99.90;;;;;;1862683;75;21083;-74
2021/06/08 07:26:40;;;;;;;14.03;9.73;;;20.00;99.90;;;;;;1858763;77;21219;-74
2021/06/08 07:29:10;;;;;;;13.65;9.33;;;20.10;99.90;;;;;;1854794;77;21065;-75
2021/06/08 07:31:41;;;;;;;11.00;9.25;;;20.20;99.90;;;;;;1859778;75;21173;-75
2021/06/08 07:34:11;;;;;;;11.90;9.50;;;20.20;99.90;;;;;;1861969;76;21647;-76
2021/06/08 07:36:47;;;;;;;12.23;9.58;;;20.30;99.90;;;;;;1860330;75;21117;-75
2021/06/08 07:39:29;;;;;;;15.95;10.00;;;20.20;99.90;;;;;;1859548;76;21528;-75
2021/06/08 07:42:12;;;;;;;12.47;9.75;;;20.30;99.90;;;;;;1853599;77;21089;-75
2021/06/08 07:44:48;;;;;;;13.48;9.00;;;20.40;99.90;;;;;;1857697;76;21183;-75
2021/06/08 07:47:18;;;;;;;12.93;9.63;;;20.40;99.90;;;;;;1858376;76;21063;-75
2021/06/08 07:49:47;;;;;;;11.15;9.88;;;20.40;99.90;;;;;;1857052;77;21579;-75
2021/06/08 07:52:19;;;;;;;12.43;9.60;;;20.50;99.90;;;;;;1859212;75;21079;-78
2021/06/08 07:54:48;;;;;;;11.83;9.53;;;20.50;99.90;;;;;;1860393;76;21109;-75
2021/06/08 07:57:16;;;;;;;12.73;10.15;;;20.60;99.90;;;;;;1863789;76;21152;-77
2021/06/08 07:59:44;;;;;;;14.93;9.28;;;20.60;99.90;;;;;;1859987;77;21253;-75
2021/06/08 08:02:13;;;;;;;11.40;9.13;;;20.70;99.90;;;;;;1863108;75;21203;-77
2021/06/08 08:04:48;;;;;;;11.73;8.75;;;20.70;99.90;;;;;;1851530;77;21570;-75
2021/06/08 08:07:13;;;;;;;13.70;9.58;;;20.70;99.90;;;;;;1857105;77;21082;-77
2021/06/08 08:09:41;;;;;;;11.08;8.60;;;20.70;99.90;;;;;;1862196;76;21243;-77
2021/06/08 08:12:09;;;;;;;13.18;8.78;;;20.70;99.90;;;;;;1859285;77;21243;-77
2021/06/08 08:14:36;;;;;;;10.38;9.28;;;20.80;99.90;;;;;;1862236;76;21106;-76
2021/06/08 08:17:05;;;;;;;11.88;9.90;;;20.90;99.90;;;;;;1855283;77;21066;-76
2021/06/08 08:19:32;;;;;;;11.40;8.98;;;20.80;99.90;;;;;;1857364;77;21110;-76
2021/06/08 08:22:00;;;;;;;10.23;8.50;;;20.90;99.90;;;;;;1855534;75;21124;-71
2021/06/08 08:24:27;;;;;;;11.00;9.18;;;21.00;99.90;;;;;;1862695;76;21170;-70
2021/06/08 08:26:55;;;;;;;16.17;9.80;;;21.00;99.90;;;;;;1861637;77;21671;-71
2021/06/08 08:29:22;;;;;;;17.62;9.33;;;21.10;99.90;;;;;;1856384;76;21679;-71
2021/06/08 08:31:50;;;;;;;15.85;9.05;;;21.10;99.90;;;;;;1861226;75;21142;-72
2021/06/08 08:34:18;;;;;;;14.38;8.73;;;21.20;99.90;;;;;;1852933;77;21100;-74
2021/06/08 08:36:45;;;;;;;12.23;8.10;;;21.20;99.90;;;;;;1854840;77;21109;-75
2021/06/08 08:39:13;;;;;;;11.25;8.08;;;21.30;99.90;;;;;;1847108;77;21175;-73
2021/06/08 08:41:42;;;;;;;10.28;8.83;;;21.40;99.90;;;;;;1853243;77;21191;-74
2021/06/08 08:44:11;;;;;;;12.98;8.55;;;21.40;99.90;;;;;;1859864;77;21047;-71
2021/06/08 08:46:40;;;;;;;10.10;7.87;;;21.50;99.90;;;;;;1858927;75;21101;-73
2021/06/08 08:49:08;;;;;;;10.60;7.90;;;21.60;99.90;;;;;;1861403;77;21179;-74
2021/06/08 08:51:38;;;;;;;15.20;7.47;;;21.70;99.90;;;;;;1863104;75;21152;-73
2021/06/08 08:54:06;;;;;;;10.23;7.50;;;21.80;99.90;;;;;;1862199;76;21184;-73
2021/06/08 08:56:37;;;;;;;9.98;7.30;;;21.80;99.90;;;;;;1845882;76;21105;-73
2021/06/08 08:59:08;;;;;;;13.58;7.33;;;21.90;99.90;;;;;;1861108;76;21066;-73
2021/06/08 09:01:37;;;;;;;10.45;6.47;;;22.00;99.90;;;;;;1861328;75;21137;-72
2021/06/08 09:04:07;;;;;;;10.03;7.83;;;22.10;99.90;;;;;;1853567;77;21533;-73
2021/06/08 09:06:36;;;;;;;10.98;7.17;;;22.20;99.90;;;;;;1858432;77;21112;-74
2021/06/08 09:09:06;;;;;;;8.73;7.15;;;22.20;99.90;;;;;;1860772;76;21102;-73
2021/06/08 09:11:41;;;;;;;12.25;7.17;;;22.30;99.90;;;;;;1859352;75;21168;-73
2021/06/08 09:14:11;;;;;;;10.03;7.62;;;22.30;99.90;;;;;;1887994;74;21195;-73
2021/06/08 09:16:40;;;;;;;8.98;7.10;;;22.40;99.90;;;;;;1886087;74;21109;-73
2021/06/08 09:19:09;;;;;;;8.63;7.15;;;22.30;99.90;;;;;;1883909;74;21155;-73
2021/06/08 09:21:43;;;;;;;8.88;6.62;;;22.30;99.90;;;;;;1888108;74;21603;-73
2021/06/08 09:24:20;;;;;;;8.95;6.47;;;22.40;99.90;;;;;;1885911;74;21113;-73
2021/06/08 09:27:05;;;;;;;10.28;6.75;;;22.40;99.90;;;;;;1887311;74;21137;-72
2021/06/08 09:29:35;;;;;;;9.78;7.05;;;22.30;99.90;;;;;;1884077;74;21129;-71
2021/06/08 09:32:21;;;;;;;13.13;7.30;;;22.30;99.90;;;;;;1887867;74;21192;-72
2021/06/08 09:35:00;;;;;;;8.93;6.70;;;22.40;99.90;;;;;;1888536;74;21077;-71
2021/06/08 09:37:33;;;;;;;10.03;7.20;;;22.50;99.90;;;;;;1889150;74;21109;-71
2021/06/08 09:40:03;;;;;;;9.08;6.90;;;22.50;99.90;;;;;;1884708;74;21155;-70
2021/06/08 09:42:31;;;;;;;9.80;6.22;;;22.50;99.90;;;;;;1897152;74;21090;-71
2021/06/08 09:45:18;;;;;;;7.20;6.25;;;22.50;99.90;;;;;;1892620;74;22425;-71
2021/06/08 09:47:47;;;;;;;14.00;6.15;;;22.60;99.90;;;;;;1897840;74;21666;-71
2021/06/08 09:50:32;;;;;;;11.85;6.78;;;22.70;99.90;;;;;;1882930;74;21054;-71
2021/06/08 09:53:22;;;;;;;9.23;6.60;;;22.80;99.90;;;;;;1885910;74;21853;-69
2021/06/08 09:55:55;;;;;;;10.15;6.53;;;23.00;99.90;;;;;;1886834;74;21443;-69
2021/06/08 09:58:24;;;;;;;7.67;6.33;;;23.00;99.90;;;;;;1889862;74;21046;-69
2021/06/08 10:01:13;;;;;;;8.40;6.42;;;23.10;99.90;;;;;;1907854;74;21179;-69
2021/06/08 10:03:44;;;;;;;13.08;5.97;;;23.10;99.90;;;;;;1876982;74;22692;-69
2021/06/08 10:06:14;;;;;;;9.50;6.15;;;23.20;99.90;;;;;;1880573;76;21280;-69
2021/06/08 10:08:53;;;;;;;8.60;5.40;;;23.30;99.90;;;;;;1892467;74;21167;-71
2021/06/08 10:11:23;;;;;;;14.23;6.33;;;23.30;99.90;;;;;;1888676;74;21543;-73
2021/06/08 10:14:17;;;;;;;13.60;6.28;;;23.50;99.90;;;;;;1912664;71;21180;-69
2021/06/08 10:16:46;;;;;;;12.88;7.47;;;23.70;99.90;;;;;;1918713;74;21070;-69
2021/06/08 10:19:16;;;;;;;7.58;5.90;;;23.60;99.90;;;;;;1917768;74;21151;-66
2021/06/08 10:21:47;;;;;;;8.73;6.30;;;23.70;99.90;;;;;;1925535;73;21125;-68
2021/06/08 10:24:20;;;;;;;8.23;5.83;;;23.70;99.90;;;;;;1897387;75;20995;-68
2021/06/08 10:26:51;;;;;;;9.33;6.60;;;23.70;99.90;;;;;;1902653;74;21010;-66
2021/06/08 10:29:24;;;;;;;8.43;6.85;;;23.80;99.90;;;;;;1908510;75;22253;-67
2021/06/08 10:31:52;;;;;;;12.98;6.55;;;23.80;99.90;;;;;;1863373;76;21371;-68
2021/06/08 10:34:20;;;;;;;6.58;5.47;;;23.90;99.90;;;;;;1860335;76;21525;-69
2021/06/08 10:36:50;;;;;;;8.48;5.35;;;23.90;99.90;;;;;;1908678;74;21030;-68
2021/06/08 10:39:22;;;;;;;7.37;5.60;;;23.90;99.90;;;;;;1909894;74;21097;-68
2021/06/08 10:41:47;;;;;;;8.60;5.40;;;23.90;99.90;;;;;;1913387;74;21046;-69
2021/06/08 10:44:25;;;;;;;9.33;5.28;;;23.90;99.90;;;;;;1853384;76;21105;-69
2021/06/08 10:46:56;;;;;;;12.07;6.00;;;24.00;99.90;;;;;;1846961;76;21508;-69
2021/06/08 10:49:39;;;;;;;10.30;5.75;;;24.10;99.90;;;;;;1862726;76;21573;-67
2021/06/08 10:52:08;;;;;;;8.55;5.85;;;24.20;99.90;;;;;;1889477;75;21197;-68
2021/06/08 10:54:42;;;;;;;5.85;4.90;;;24.30;99.90;;;;;;1890493;75;22507;-68
2021/06/08 10:57:17;;;;;;;8.33;5.70;;;24.40;99.90;;;;;;1839400;76;21568;-69
2021/06/08 10:59:49;;;;;;;7.55;5.67;;;24.50;99.90;;;;;;1899991;74;21106;-69
2021/06/08 11:02:47;;;;;;;6.50;5.17;;;24.60;99.90;;;;;;1893799;74;21154;-67
2021/06/08 11:05:19;;;;;;;6.95;5.50;;;24.80;99.90;;;;;;1870822;75;21118;-67
2021/06/08 11:07:50;;;;;;;8.37;5.40;;;24.80;99.90;;;;;;1864543;75;21139;-69
2021/06/08 11:10:30;;;;;;;17.35;5.97;;;24.80;99.90;;;;;;1836035;76;21670;-65
2021/06/08 11:13:10;;;;;;;7.10;5.30;;;24.80;99.90;;;;;;1897601;74;21150;-65
2021/06/08 11:15:40;;;;;;;6.58;5.87;;;24.90;99.90;;;;;;1898593;74;21491;-67
2021/06/08 11:18:19;;;;;;;9.15;5.87;;;25.00;99.90;;;;;;1901700;74;21109;-65
2021/06/08 11:20:49;;;;;;;7.45;5.40;;;25.00;99.90;;;;;;1849952;75;21106;-65
2021/06/08 11:23:43;;;;;;;8.80;5.72;;;25.10;99.90;;;;;;1898066;74;22260;-66
2021/06/08 11:26:18;;;;;;;8.60;5.90;;;25.20;99.90;;;;;;1902617;74;21857;-65
2021/06/08 11:28:48;;;;;;;7.22;5.80;;;25.30;99.90;;;;;;1900709;74;21591;-66
2021/06/08 11:31:18;;;;;;;9.75;5.40;;;25.20;99.90;;;;;;1900675;74;21697;-66
2021/06/08 11:33:48;;;;;;;6.87;5.80;;;25.20;99.90;;;;;;1898141;74;21214;-67
2021/06/08 11:36:22;;;;;;;7.83;5.78;;;25.10;99.90;;;;;;1891414;75;21073;-67
2021/06/08 11:38:55;;;;;;;8.15;5.40;;;25.00;99.90;;;;;;1900415;75;21168;-66
2021/06/08 11:41:23;;;;;;;8.45;5.55;;;25.00;99.90;;;;;;1903513;75;21070;-65
2021/06/08 11:43:53;;;;;;;7.33;5.80;;;24.90;99.90;;;;;;1899474;75;21575;-67
2021/06/08 11:46:28;;;;;;;7.35;4.90;;;24.90;99.90;;;;;;1896915;75;21105;-67
2021/06/08 11:49:14;;;;;;;10.18;5.15;;;24.80;99.90;;;;;;1889074;75;21136;-66
2021/06/08 11:51:48;;;;;;;6.80;4.55;;;24.80;99.90;;;;;;1889003;75;21121;-67
2021/06/08 11:54:31;;;;;;;5.80;4.60;;;24.70;99.90;;;;;;1892015;75;22155;-67
2021/06/08 11:57:03;;;;;;;6.75;4.90;;;24.70;99.90;;;;;;1898965;75;21085;-69
2021/06/08 11:59:32;;;;;;;7.58;4.55;;;24.70;99.90;;;;;;1905532;75;21114;-68
2021/06/08 12:02:06;;;;;;;5.47;4.42;;;24.90;99.90;;;;;;1903413;75;21121;-68
2021/06/08 12:04:37;;;;;;;6.85;4.33;;;25.00;99.90;;;;;;1900717;75;21071;-69
2021/06/08 12:07:10;;;;;;;6.40;4.30;;;25.10;99.90;;;;;;1879586;75;21538;-67
2021/06/08 12:09:47;;;;;;;6.53;4.40;;;25.20;99.90;;;;;;1908283;75;21019;-69
2021/06/08 12:12:17;;;;;;;5.62;4.60;;;25.30;99.90;;;;;;1907713;74;21136;-68
2021/06/08 12:14:53;;;;;;;7.60;4.85;;;25.30;99.90;;;;;;1897534;75;21569;-66
2021/06/08 12:17:21;;;;;;;7.92;4.70;;;25.40;99.90;;;;;;1901368;75;21014;-66
2021/06/08 12:19:49;;;;;;;9.08;5.47;;;25.60;99.90;;;;;;1896338;73;21509;-66
2021/06/08 12:22:25;;;;;;;9.10;4.40;;;25.60;99.90;;;;;;1901250;74;21656;-64
2021/06/08 12:25:01;;;;;;;5.08;4.40;;;25.60;99.90;;;;;;1837239;76;21633;-65
2021/06/08 12:27:42;;;;;;;9.00;4.12;;;25.70;99.90;;;;;;1836963;76;21189;-67
2021/06/08 12:30:12;;;;;;;6.95;3.52;;;25.70;99.90;;;;;;1902098;74;21101;-66
2021/06/08 12:32:40;;;;;;;6.53;3.87;;;25.70;99.90;;;;;;1900194;74;21604;-67
2021/06/08 12:35:22;;;;;;;5.03;3.50;;;25.60;99.90;;;;;;1869099;75;21173;-67
2021/06/08 12:37:50;;;;;;;8.98;3.77;;;25.60;99.90;;;;;;1866711;75;21097;-68
2021/06/08 12:40:19;;;;;;;6.15;4.17;;;25.80;99.90;;;;;;1866676;75;21212;-65
2021/06/08 12:42:48;;;;;;;8.00;4.30;;;25.90;99.90;;;;;;1911077;74;22238;-68
2021/06/08 12:45:22;;;;;;;5.58;3.85;;;26.10;99.90;;;;;;1910267;74;21200;-67
2021/06/08 12:47:50;;;;;;;6.47;4.03;;;26.10;99.90;;;;;;1829046;77;21083;-69
2021/06/08 12:50:21;;;;;;;9.90;4.65;;;26.10;99.90;;;;;;1900049;74;21083;-67